Weather at Kiryat Shmona Airport

Public forecast

Using degrees Celsius for public forecast. Weather courtesy of forecast.io.

Closest aviation weather report (METAR) to Kiryat Shmona Airport

Closest report is Beirut Rafic Hariri International Airport, 36.7 nm (68.0 km) N.

2024/02/24 16:00 (retrieved 44 minutes ago)

OLBA 241600Z 22004KT 8000 SCT030 18/12 Q1021 NOSIG

Closest aviation forecast (TAF) to Kiryat Shmona Airport

Closest forecast is Beirut Rafic Hariri International Airport, 36.7 nm (68.0 km) N.

2024/02/24 12:01 (retrieved 5 hours ago)

TAF OLBA 241000Z 2412/2518 25005KT 8000 SCT070 BECMG 2415/2418 VRB02KT FEW026 SCT060 BECMG 2418/2421 29005KT SCT026 BECMG 2421/2424 02005KT BECMG 2503/2506 VRB02KT TEMPO 2418/2506 5000 BR